createdAt,value
2018-11-26T00:00:51.765Z,99.90
2018-11-26T00:03:01.590Z,99.60
2018-11-26T00:05:12.503Z,99.60
2018-11-26T00:07:19.208Z,99.70
2018-11-26T00:09:31.030Z,99.70
2018-11-26T00:11:41.696Z,99.70
2018-11-26T00:13:53.620Z,99.60
2018-11-26T00:16:01.524Z,99.50
2018-11-26T00:18:15.191Z,99.50
2018-11-26T00:20:25.378Z,99.40
2018-11-26T00:22:34.026Z,99.30
2018-11-26T00:24:49.498Z,99.30
2018-11-26T00:26:56.407Z,99.40
2018-11-26T00:29:05.600Z,99.40
2018-11-26T00:31:15.213Z,99.30
2018-11-26T00:33:25.250Z,99.10
2018-11-26T00:35:30.923Z,99.00
2018-11-26T00:37:40.430Z,99.00
2018-11-26T00:39:49.493Z,98.80
2018-11-26T00:41:59.932Z,98.80
2018-11-26T00:44:13.088Z,99.00
2018-11-26T00:46:20.906Z,98.70
2018-11-26T00:48:29.794Z,98.80
2018-11-26T00:50:43.287Z,98.80
2018-11-26T00:52:54.459Z,98.80
2018-11-26T00:55:01.892Z,98.70
2018-11-26T00:57:11.719Z,98.70
2018-11-26T00:59:24.014Z,98.90
2018-11-26T01:01:32.755Z,99.20
2018-11-26T01:03:43.309Z,99.70
2018-11-26T01:08:03.534Z,99.80
2018-11-26T01:10:14.122Z,99.90
2018-11-26T01:12:23.026Z,99.90
2018-11-26T01:14:31.394Z,99.90
2018-11-26T01:16:46.306Z,99.90
2018-11-26T01:18:59.493Z,99.90
2018-11-26T01:21:13.001Z,99.90
2018-11-26T01:23:24.201Z,99.90
2018-11-26T01:25:33.230Z,99.90
2018-11-26T01:27:42.018Z,99.90
2018-11-26T01:29:50.804Z,99.90
2018-11-26T01:32:03.114Z,99.90
2018-11-26T01:34:13.752Z,99.90
2018-11-26T01:36:27.600Z,99.90
2018-11-26T01:38:37.415Z,99.90
2018-11-26T01:40:51.226Z,99.90
2018-11-26T01:43:02.306Z,99.90
2018-11-26T01:45:14.815Z,99.90
2018-11-26T01:47:23.240Z,99.90
2018-11-26T01:49:32.379Z,99.90
2018-11-26T01:53:58.557Z,99.90
2018-11-26T01:56:11.615Z,99.90
2018-11-26T01:58:28.726Z,99.90
2018-11-26T02:00:35.200Z,99.90
2018-11-26T02:02:47.760Z,99.80
2018-11-26T02:05:02.558Z,99.80
2018-11-26T02:07:20.319Z,99.80
2018-11-26T02:09:34.035Z,99.60
2018-11-26T02:11:45.291Z,99.60
2018-11-26T02:13:54.413Z,99.60
2018-11-26T02:30:56.850Z,99.40
2018-11-26T02:35:23.210Z,99.40
2018-11-26T02:37:29.825Z,99.40
2018-11-26T02:39:47.153Z,99.10
2018-11-26T02:41:58.775Z,99.00
2018-11-26T02:44:09.399Z,98.90
2018-11-26T02:46:17.609Z,99.20
2018-11-26T02:48:25.596Z,99.10
2018-11-26T02:50:31.556Z,99.30
2018-11-26T02:52:45.114Z,99.30
2018-11-26T02:54:50.908Z,99.30
2018-11-26T02:56:59.386Z,99.40
2018-11-26T02:59:08.318Z,99.30
2018-11-26T03:35:48.133Z,98.70
2018-11-26T03:37:53.621Z,98.80
2018-11-26T03:40:17.224Z,99.10
2018-11-26T03:42:22.425Z,98.90
2018-11-26T03:44:30.960Z,98.80
2018-11-26T03:46:42.269Z,98.70
2018-11-26T03:51:08.189Z,98.50
2018-11-26T03:53:15.793Z,98.50
2018-11-26T03:55:26.408Z,98.60
2018-11-26T03:57:39.561Z,98.80
2018-11-26T03:59:50.391Z,98.60
2018-11-26T04:09:02.866Z,99.10
2018-11-26T04:11:19.965Z,99.20
2018-11-26T04:13:26.635Z,99.40
2018-11-26T04:17:47.602Z,99.60
2018-11-26T04:19:55.825Z,99.80
2018-11-26T04:22:05.247Z,99.80
2018-11-26T04:24:22.520Z,99.70
2018-11-26T04:26:30.350Z,99.70
2018-11-26T04:28:44.170Z,99.90
2018-11-26T04:31:02.674Z,99.90
2018-11-26T04:33:12.924Z,99.90
2018-11-26T04:35:20.575Z,99.80
2018-11-26T04:37:36.350Z,99.80
2018-11-26T04:39:43.565Z,99.60
2018-11-26T04:41:52.685Z,99.30
2018-11-26T04:44:10.307Z,99.80
2018-11-26T04:46:21.305Z,99.60
2018-11-26T04:48:32.460Z,99.50
2018-11-26T04:50:51.532Z,99.30
2018-11-26T04:53:00.880Z,99.20
2018-11-26T04:55:19.962Z,99.30
2018-11-26T04:57:42.594Z,99.20
2018-11-26T04:59:49.902Z,99.30
2018-11-26T05:01:57.219Z,99.00
2018-11-26T05:04:09.838Z,99.00
2018-11-26T05:06:18.768Z,98.90
2018-11-26T05:08:26.411Z,98.90
2018-11-26T05:10:32.675Z,98.70
2018-11-26T05:12:39.571Z,98.80
2018-11-26T05:17:13.801Z,98.50
2018-11-26T05:19:24.080Z,98.50
2018-11-26T05:21:34.614Z,98.40
2018-11-26T05:23:40.390Z,98.50
2018-11-26T05:25:51.107Z,98.60
2018-11-26T05:28:02.487Z,98.60
2018-11-26T05:47:35.326Z,98.60
2018-11-26T05:49:51.678Z,98.50
2018-11-26T06:07:04.058Z,99.10
2018-11-26T06:09:17.403Z,99.30
2018-11-26T06:19:08.313Z,99.70
2018-11-26T06:40:55.701Z,99.00
2018-11-26T06:43:04.953Z,99.10
2018-11-26T06:45:27.296Z,99.30
2018-11-26T06:47:39.663Z,99.60
2018-11-26T06:49:51.683Z,99.50
2018-11-26T06:52:03.157Z,99.30
2018-11-26T06:54:20.092Z,99.10
2018-11-26T06:56:31.312Z,99.10
2018-11-26T06:58:40.424Z,99.50
2018-11-26T07:00:52.821Z,99.10
2018-11-26T07:03:00.509Z,99.00
2018-11-26T07:05:17.276Z,99.00
2018-11-26T07:07:30.377Z,98.80
2018-11-26T07:09:40.235Z,98.90
2018-11-26T07:11:52.225Z,98.80
2018-11-26T07:14:01.101Z,99.00
2018-11-26T07:16:12.271Z,99.20
2018-11-26T07:18:21.028Z,99.10
2018-11-26T07:20:31.906Z,99.00
2018-11-26T07:25:53.647Z,98.90
2018-11-26T07:28:03.324Z,99.00
2018-11-26T07:30:23.347Z,99.10
2018-11-26T07:32:30.801Z,99.00
2018-11-26T07:34:38.838Z,98.80
2018-11-26T07:36:48.037Z,98.70
2018-11-26T07:38:59.599Z,98.80
2018-11-26T07:41:09.185Z,98.50
2018-11-26T07:43:21.674Z,98.70
2018-11-26T07:47:47.362Z,98.20
2018-11-26T07:49:59.249Z,98.30
2018-11-26T07:52:10.370Z,98.20
2018-11-26T07:54:20.193Z,98.20
2018-11-26T07:56:33.740Z,98.20
2018-11-26T07:58:44.450Z,98.10
2018-11-26T08:00:58.609Z,98.20
2018-11-26T08:03:11.393Z,98.10
2018-11-26T08:07:43.963Z,97.60
2018-11-26T08:09:55.550Z,97.50
2018-11-26T08:12:04.046Z,97.50
2018-11-26T08:14:13.880Z,97.50
2018-11-26T08:16:29.218Z,97.40
2018-11-26T08:18:42.038Z,97.40
2018-11-26T08:20:52.058Z,97.20
2018-11-26T08:23:06.279Z,97.30
2018-11-26T08:25:22.162Z,97.20
2018-11-26T08:27:31.661Z,96.90
2018-11-26T08:29:46.198Z,96.80
2018-11-26T08:31:56.817Z,96.70
2018-11-26T08:34:05.233Z,96.50
2018-11-26T08:38:34.016Z,96.50
2018-11-26T08:40:50.437Z,96.30
2018-11-26T08:43:32.950Z,96.20
2018-11-26T08:45:43.997Z,96.10
2018-11-26T08:47:59.719Z,95.70
2018-11-26T08:50:09.138Z,95.60
2018-11-26T08:52:23.348Z,95.80
2018-11-26T08:54:36.117Z,95.80
2018-11-26T08:56:48.530Z,95.60
2018-11-26T08:58:57.753Z,95.60
2018-11-26T09:01:12.789Z,95.70
2018-11-26T09:03:23.175Z,95.60
2018-11-26T09:05:38.855Z,95.60
2018-11-26T09:07:49.022Z,95.70
2018-11-26T09:09:59.167Z,95.80
2018-11-26T09:12:14.093Z,95.50
2018-11-26T09:14:26.401Z,95.40
2018-11-26T09:16:40.146Z,95.20
2018-11-26T09:18:51.740Z,94.90
2018-11-26T09:21:00.656Z,95.00
2018-11-26T09:23:18.424Z,94.80
2018-11-26T09:25:26.854Z,95.00
2018-11-26T09:27:38.144Z,94.80
2018-11-26T09:29:44.584Z,94.80
2018-11-26T09:33:46.225Z,94.50
2018-11-26T09:35:51.257Z,94.60
2018-11-26T09:37:56.085Z,94.40
2018-11-26T09:40:01.462Z,94.40
2018-11-26T09:42:06.299Z,94.40
2018-11-26T09:44:11.806Z,94.20
2018-11-26T09:46:22.246Z,94.50
2018-11-26T09:48:32.293Z,94.50
2018-11-26T09:50:45.365Z,94.80
2018-11-26T09:52:56.246Z,94.50
2018-11-26T09:55:04.818Z,94.60
2018-11-26T09:57:17.204Z,94.60
2018-11-26T09:59:31.066Z,94.40
2018-11-26T10:01:39.222Z,94.30
2018-11-26T10:03:46.456Z,94.30
2018-11-26T10:05:57.773Z,94.20
2018-11-26T10:08:07.775Z,94.10
2018-11-26T10:10:23.239Z,93.70
2018-11-26T10:12:34.096Z,93.80
2018-11-26T10:14:50.932Z,93.80
2018-11-26T10:17:00.282Z,93.70
2018-11-26T10:19:08.865Z,93.80
2018-11-26T10:21:18.112Z,93.60
2018-11-26T10:23:32.917Z,93.50
2018-11-26T10:25:45.165Z,93.50
2018-11-26T10:27:56.734Z,93.40
2018-11-26T10:30:09.395Z,93.40
2018-11-26T10:32:26.098Z,93.20
2018-11-26T10:34:40.723Z,93.20
2018-11-26T10:36:51.481Z,93.40
2018-11-26T10:38:57.673Z,93.40
2018-11-26T10:41:06.027Z,93.20
2018-11-26T10:43:19.831Z,93.20
2018-11-26T10:45:38.356Z,93.00
2018-11-26T10:47:50.503Z,93.20
2018-11-26T10:50:03.285Z,93.50
2018-11-26T10:52:16.256Z,93.50
2018-11-26T10:54:27.986Z,93.30
2018-11-26T10:56:41.470Z,93.30
2018-11-26T10:58:58.381Z,93.40
2018-11-26T11:01:16.979Z,93.40
2018-11-26T11:05:49.674Z,93.00
2018-11-26T11:08:05.006Z,93.10
2018-11-26T11:10:26.386Z,93.20
2018-11-26T11:12:44.636Z,93.10
2018-11-26T11:14:59.449Z,93.00
2018-11-26T11:17:13.282Z,92.90
2018-11-26T11:19:29.688Z,92.80
2018-11-26T11:21:41.026Z,92.90
2018-11-26T11:23:55.630Z,93.00
2018-11-26T11:26:11.265Z,93.20
2018-11-26T11:28:28.186Z,92.90
2018-11-26T11:30:41.318Z,93.10
2018-11-26T11:32:54.739Z,93.10
2018-11-26T11:35:07.294Z,92.80
2018-11-26T11:37:17.114Z,93.00
2018-11-26T11:39:29.191Z,92.90
2018-11-26T11:41:49.796Z,92.90
2018-11-26T11:44:01.219Z,92.80
2018-11-26T11:46:19.377Z,92.90
2018-11-26T11:50:56.165Z,93.60
2018-11-26T11:53:05.395Z,92.90
2018-11-26T11:55:27.276Z,92.90
2018-11-26T11:57:45.431Z,93.10
2018-11-26T11:59:58.417Z,93.30
2018-11-26T12:02:15.980Z,93.40
2018-11-26T12:04:35.940Z,93.40
2018-11-26T12:06:51.493Z,93.20
2018-11-26T12:09:20.267Z,93.20
2018-11-26T12:11:34.530Z,93.20
2018-11-26T12:13:49.953Z,93.30
2018-11-26T12:16:02.659Z,93.40
2018-11-26T12:18:23.018Z,93.40
2018-11-26T12:20:35.234Z,93.40
2018-11-26T12:22:47.512Z,93.60
2018-11-26T12:24:58.474Z,93.50
2018-11-26T12:27:11.371Z,93.40
2018-11-26T12:29:23.306Z,93.40
2018-11-26T12:31:39.066Z,93.40
2018-11-26T12:33:49.122Z,93.40
2018-11-26T12:35:56.061Z,93.70
2018-11-26T12:38:09.363Z,93.60
2018-11-26T12:42:50.446Z,93.70
2018-11-26T12:45:07.681Z,93.60
2018-11-26T12:47:20.131Z,93.60
2018-11-26T12:49:36.418Z,93.70
2018-11-26T12:51:44.191Z,93.50
2018-11-26T12:53:51.916Z,93.60
2018-11-26T12:58:37.548Z,93.50
2018-11-26T13:00:47.054Z,93.50
2018-11-26T13:03:07.475Z,93.70
2018-11-26T13:05:17.746Z,93.70
2018-11-26T13:07:31.465Z,93.90
2018-11-26T13:09:42.021Z,93.70
2018-11-26T13:11:56.580Z,93.80
2018-11-26T13:14:16.301Z,94.00
2018-11-26T13:16:35.206Z,94.10
2018-11-26T13:18:48.287Z,94.20
2018-11-26T13:21:03.612Z,94.00
2018-11-26T13:25:42.565Z,94.10
2018-11-26T13:28:06.038Z,94.00
2018-11-26T13:30:25.794Z,94.10
2018-11-26T13:32:47.464Z,94.10
2018-11-26T13:35:00.780Z,93.90
2018-11-26T13:37:16.538Z,94.20
2018-11-26T13:39:34.194Z,94.20
2018-11-26T13:41:47.957Z,94.30
2018-11-26T13:43:57.320Z,94.40
2018-11-26T13:46:12.646Z,94.50
2018-11-26T13:48:31.320Z,94.50
2018-11-26T13:50:45.268Z,94.40
2018-11-26T13:52:56.437Z,94.30
2018-11-26T13:55:07.471Z,94.00
2018-11-26T13:57:16.463Z,94.10
2018-11-26T13:59:33.754Z,94.20
2018-11-26T14:01:46.615Z,94.20
2018-11-26T14:03:56.975Z,94.20
2018-11-26T14:06:08.555Z,94.40
2018-11-26T14:08:22.368Z,94.30
2018-11-26T14:10:34.089Z,94.30
2018-11-26T14:12:47.608Z,94.40
2018-11-26T14:14:56.977Z,94.30
2018-11-26T14:17:06.868Z,94.40
2018-11-26T14:19:20.208Z,94.50
2018-11-26T14:21:35.010Z,94.60
2018-11-26T14:23:44.947Z,94.60
2018-11-26T14:25:58.663Z,94.60
2018-11-26T14:28:11.326Z,94.60
2018-11-26T14:30:33.894Z,94.40
2018-11-26T14:32:47.774Z,94.20
2018-11-26T14:34:54.639Z,94.40
2018-11-26T14:37:01.841Z,94.20
2018-11-26T14:39:18.419Z,94.20
2018-11-26T14:41:26.863Z,94.10
2018-11-26T14:43:40.154Z,94.20
2018-11-26T14:45:50.057Z,94.20
2018-11-26T14:47:57.799Z,94.20
2018-11-26T14:50:13.082Z,94.00
2018-11-26T14:52:23.954Z,94.10
2018-11-26T14:56:56.881Z,93.90
2018-11-26T14:59:07.469Z,94.10
2018-11-26T15:01:22.772Z,94.10
2018-11-26T15:03:35.959Z,94.00
2018-11-26T15:05:51.827Z,94.00
2018-11-26T15:08:11.332Z,94.20
2018-11-26T15:10:29.846Z,94.10
2018-11-26T15:12:39.512Z,94.10
2018-11-26T15:14:51.148Z,94.30
2018-11-26T15:17:10.286Z,94.30
2018-11-26T15:19:24.257Z,94.30
2018-11-26T15:21:35.561Z,94.50
2018-11-26T15:23:47.811Z,94.50
2018-11-26T15:26:06.000Z,94.50
2018-11-26T15:28:15.726Z,94.60
2018-11-26T15:30:29.837Z,94.70
2018-11-26T15:32:44.083Z,94.70
2018-11-26T15:35:01.734Z,94.60
2018-11-26T15:37:17.335Z,94.70
2018-11-26T15:39:32.832Z,94.70
2018-11-26T15:41:41.716Z,94.60
2018-11-26T15:43:52.808Z,94.60
2018-11-26T15:46:09.277Z,94.60
2018-11-26T15:48:17.472Z,94.60
2018-11-26T15:50:34.289Z,94.60
2018-11-26T15:52:53.428Z,94.60
2018-11-26T15:55:08.119Z,94.60
2018-11-26T15:57:17.701Z,94.60
2018-11-26T15:59:32.338Z,94.50
2018-11-26T16:01:45.255Z,94.70
2018-11-26T16:06:30.626Z,94.80
2018-11-26T16:08:44.368Z,95.00
2018-11-26T16:10:58.911Z,95.10
2018-11-26T16:13:13.548Z,94.80
2018-11-26T16:15:27.783Z,95.20
2018-11-26T16:17:42.150Z,95.20
2018-11-26T16:20:01.311Z,95.40
2018-11-26T16:22:14.613Z,95.40
2018-11-26T16:26:45.720Z,95.50
2018-11-26T16:29:10.325Z,95.20
2018-11-26T16:33:43.287Z,95.70
2018-11-26T16:35:55.835Z,95.60
2018-11-26T16:38:07.161Z,95.60
2018-11-26T16:40:22.744Z,95.70
2018-11-26T16:42:36.888Z,95.80
2018-11-26T16:44:49.729Z,95.70
2018-11-26T16:47:07.719Z,95.70
2018-11-26T16:49:19.314Z,95.70
2018-11-26T16:51:41.140Z,95.70
2018-11-26T16:54:05.128Z,95.70
2018-11-26T16:58:36.834Z,95.70
2018-11-26T17:00:53.817Z,95.70
2018-11-26T17:03:13.429Z,95.80
2018-11-26T17:05:25.802Z,95.60
2018-11-26T17:07:36.973Z,95.60
2018-11-26T17:12:15.635Z,95.60
2018-11-26T17:14:28.358Z,95.70
2018-11-26T17:16:48.119Z,95.70
2018-11-26T17:19:01.150Z,95.60
2018-11-26T17:21:19.600Z,95.60
2018-11-26T17:23:33.954Z,95.60
2018-11-26T17:25:49.411Z,95.50
2018-11-26T17:27:59.315Z,95.50
2018-11-26T17:37:28.586Z,95.70
2018-11-26T17:39:41.825Z,95.70
2018-11-26T17:41:56.284Z,95.70
2018-11-26T17:44:12.823Z,95.60
2018-11-26T17:46:25.780Z,95.60
2018-11-26T17:48:39.987Z,95.50
2018-11-26T17:50:56.878Z,95.60
2018-11-26T17:53:10.445Z,95.90
2018-11-26T17:55:29.849Z,95.90
2018-11-26T17:57:40.704Z,95.80
2018-11-26T17:59:55.039Z,96.00
2018-11-26T18:02:12.151Z,95.90
2018-11-26T18:04:33.003Z,95.90
2018-11-26T18:06:47.474Z,95.80
2018-11-26T18:08:56.526Z,95.80
2018-11-26T18:11:14.488Z,95.90
2018-11-26T18:13:29.326Z,95.90
2018-11-26T18:15:40.765Z,95.70
2018-11-26T18:18:16.446Z,95.80
2018-11-26T18:20:41.638Z,95.80
2018-11-26T18:22:56.522Z,95.80
2018-11-26T18:25:13.465Z,95.70
2018-11-26T18:27:28.337Z,95.70
2018-11-26T18:29:41.652Z,95.70
2018-11-26T18:31:55.768Z,95.50
2018-11-26T18:34:05.562Z,95.70
2018-11-26T18:36:19.869Z,95.70
2018-11-26T18:38:28.973Z,95.70
2018-11-26T18:40:52.717Z,95.70
2018-11-26T18:43:02.617Z,95.70
2018-11-26T18:47:36.304Z,95.60
2018-11-26T18:49:43.711Z,95.60
2018-11-26T18:51:59.813Z,95.60
2018-11-26T18:56:37.638Z,95.80
2018-11-26T18:58:48.181Z,95.90
2018-11-26T19:01:01.696Z,95.90
2018-11-26T19:03:10.634Z,95.80
2018-11-26T19:05:27.886Z,96.00
2018-11-26T19:07:48.552Z,96.00
2018-11-26T19:09:59.101Z,96.00
2018-11-26T19:12:13.950Z,96.00
2018-11-26T19:14:31.263Z,95.90
2018-11-26T19:16:48.462Z,96.00
2018-11-26T19:19:06.365Z,96.10
2018-11-26T19:21:19.102Z,96.00
2018-11-26T19:23:33.318Z,96.00
2018-11-26T19:28:06.948Z,96.10
2018-11-26T19:30:28.336Z,96.20
2018-11-26T19:37:20.335Z,96.30
2018-11-26T19:39:27.381Z,96.20
2018-11-26T19:41:43.442Z,96.20
2018-11-26T19:43:54.253Z,96.40
2018-11-26T19:46:06.005Z,96.40
2018-11-26T19:48:17.543Z,96.40
2018-11-26T19:50:32.977Z,96.10
2018-11-26T19:52:46.099Z,96.00
2018-11-26T19:54:56.654Z,96.00
2018-11-26T19:57:11.189Z,96.00
2018-11-26T19:59:56.004Z,95.90
2018-11-26T20:02:14.477Z,95.80
2018-11-26T20:04:28.797Z,95.80
2018-11-26T20:06:41.271Z,95.70
2018-11-26T20:08:51.866Z,95.80
2018-11-26T20:11:02.214Z,95.90
2018-11-26T20:13:14.661Z,95.70
2018-11-26T20:15:29.831Z,95.80
2018-11-26T20:17:42.333Z,95.70
2018-11-26T20:19:56.153Z,95.80
2018-11-26T20:22:01.777Z,95.70
2018-11-26T20:24:11.335Z,95.70
2018-11-26T20:26:21.814Z,95.70
2018-11-26T20:28:34.228Z,95.60
2018-11-26T20:30:52.428Z,95.60
2018-11-26T20:33:06.884Z,95.60
2018-11-26T20:35:22.149Z,95.60
2018-11-26T20:37:37.649Z,95.60
2018-11-26T20:39:51.331Z,95.70
2018-11-26T20:44:26.614Z,95.80
2018-11-26T20:46:41.442Z,95.60
2018-11-26T20:48:55.822Z,95.70
2018-11-26T20:51:09.155Z,95.80
2018-11-26T20:53:20.982Z,96.00
2018-11-26T20:55:31.735Z,96.00
2018-11-26T20:57:46.972Z,96.00
2018-11-26T20:59:57.814Z,96.00
2018-11-26T21:02:12.522Z,96.00
2018-11-26T21:06:38.789Z,96.00
2018-11-26T21:08:48.030Z,96.20
2018-11-26T21:10:58.479Z,96.10
2018-11-26T21:13:16.804Z,96.20
2018-11-26T21:15:27.981Z,96.30
2018-11-26T21:17:37.802Z,96.30
2018-11-26T21:19:51.416Z,96.40
2018-11-26T21:24:17.771Z,96.40
2018-11-26T21:26:30.574Z,96.60
2018-11-26T21:28:46.393Z,96.60
2018-11-26T21:30:59.069Z,96.40
2018-11-26T21:33:07.863Z,96.30
2018-11-26T21:35:28.424Z,96.40
2018-11-26T21:37:39.567Z,96.60
2018-11-26T21:39:55.004Z,96.60
2018-11-26T21:42:04.594Z,96.40
2018-11-26T21:44:12.223Z,96.40
2018-11-26T21:46:24.462Z,96.40
2018-11-26T21:48:32.498Z,96.30
2018-11-26T21:50:43.070Z,96.20
2018-11-26T21:52:54.475Z,96.20
2018-11-26T21:55:11.567Z,96.20
2018-11-26T21:57:22.815Z,96.00
2018-11-26T21:59:32.841Z,95.80
2018-11-26T22:01:50.370Z,96.00
2018-11-26T22:04:00.642Z,96.20
2018-11-26T22:06:08.880Z,96.20
2018-11-26T22:08:26.237Z,96.20
2018-11-26T22:10:40.755Z,96.10
2018-11-26T22:12:57.436Z,96.00
2018-11-26T22:15:13.981Z,96.00
2018-11-26T22:17:22.442Z,95.80
2018-11-26T22:19:37.200Z,95.90
2018-11-26T22:21:48.437Z,95.90
2018-11-26T22:23:59.893Z,95.90
2018-11-26T22:26:13.748Z,95.70
2018-11-26T22:28:25.269Z,95.60
2018-11-26T22:30:41.805Z,95.50
2018-11-26T22:32:54.296Z,95.50
2018-11-26T22:35:06.396Z,95.60
2018-11-26T22:37:16.916Z,95.70
2018-11-26T22:39:31.751Z,95.80
2018-11-26T22:41:40.529Z,95.80
2018-11-26T22:44:02.778Z,95.70
2018-11-26T22:46:15.928Z,95.60
2018-11-26T22:48:25.199Z,95.60
2018-11-26T22:50:35.119Z,95.70
2018-11-26T22:52:51.900Z,95.70
2018-11-26T22:55:01.793Z,95.80
2018-11-26T22:57:16.971Z,95.90
2018-11-26T22:59:33.674Z,95.80
2018-11-26T23:01:47.501Z,95.70
2018-11-26T23:03:57.060Z,95.80
2018-11-26T23:06:10.575Z,96.00
2018-11-26T23:08:20.889Z,96.20
2018-11-26T23:10:33.935Z,96.20
2018-11-26T23:12:46.775Z,96.10
2018-11-26T23:14:57.653Z,96.00
2018-11-26T23:17:05.291Z,96.00
2018-11-26T23:19:16.079Z,95.90
2018-11-26T23:21:24.185Z,96.20
2018-11-26T23:23:35.168Z,95.90
2018-11-26T23:25:43.151Z,95.90
2018-11-26T23:27:52.941Z,96.10
2018-11-26T23:30:04.335Z,96.00
2018-11-26T23:32:14.230Z,96.00
2018-11-26T23:34:25.113Z,96.00
2018-11-26T23:36:33.866Z,96.10
2018-11-26T23:38:43.386Z,96.00
2018-11-26T23:40:53.830Z,96.00
2018-11-26T23:43:06.466Z,95.90
2018-11-26T23:45:26.131Z,95.90
2018-11-26T23:47:37.313Z,95.90
2018-11-26T23:49:57.517Z,96.00
2018-11-26T23:52:09.490Z,96.00
2018-11-26T23:54:21.159Z,95.90
2018-11-26T23:56:36.903Z,96.00
2018-11-26T23:58:47.124Z,96.00
